sensor_id;sensor_type;location;lat;lon;timestamp;P1;durP1;ratioP1;P2;durP2;ratioP2
84033;SDS011;74115;55.806;37.754;2024-02-04T00:00:00;10.00;;;3.92;;
84033;SDS011;74115;55.806;37.754;2024-02-04T00:02:26;10.65;;;4.18;;
84033;SDS011;74115;55.806;37.754;2024-02-04T00:04:51;7.47;;;4.15;;
84033;SDS011;74115;55.806;37.754;2024-02-04T00:07:17;11.23;;;4.22;;
84033;SDS011;74115;55.806;37.754;2024-02-04T00:09:43;10.07;;;3.72;;
84033;SDS011;74115;55.806;37.754;2024-02-04T00:12:11;9.93;;;4.22;;
84033;SDS011;74115;55.806;37.754;2024-02-04T00:14:37;8.27;;;3.33;;
84033;SDS011;74115;55.806;37.754;2024-02-04T00:17:03;9.27;;;3.28;;
84033;SDS011;74115;55.806;37.754;2024-02-04T00:19:29;7.65;;;3.40;;
84033;SDS011;74115;55.806;37.754;2024-02-04T00:21:54;9.35;;;3.45;;
84033;SDS011;74115;55.806;37.754;2024-02-04T00:24:20;6.25;;;2.88;;
84033;SDS011;74115;55.806;37.754;2024-02-04T00:26:46;8.00;;;3.50;;
84033;SDS011;74115;55.806;37.754;2024-02-04T00:29:12;7.70;;;3.95;;
84033;SDS011;74115;55.806;37.754;2024-02-04T00:31:38;8.15;;;3.83;;
84033;SDS011;74115;55.806;37.754;2024-02-04T00:34:04;6.47;;;3.25;;
84033;SDS011;74115;55.806;37.754;2024-02-04T00:36:30;6.55;;;4.22;;
84033;SDS011;74115;55.806;37.754;2024-02-04T00:38:56;7.90;;;3.50;;
84033;SDS011;74115;55.806;37.754;2024-02-04T00:41:22;6.45;;;2.75;;
84033;SDS011;74115;55.806;37.754;2024-02-04T00:43:47;8.27;;;4.15;;
84033;SDS011;74115;55.806;37.754;2024-02-04T00:46:13;8.90;;;3.90;;
84033;SDS011;74115;55.806;37.754;2024-02-04T00:48:39;8.82;;;4.18;;
84033;SDS011;74115;55.806;37.754;2024-02-04T00:51:07;7.90;;;3.35;;
84033;SDS011;74115;55.806;37.754;2024-02-04T00:53:33;7.20;;;3.95;;
84033;SDS011;74115;55.806;37.754;2024-02-04T00:56:03;4.55;;;2.92;;
84033;SDS011;74115;55.806;37.754;2024-02-04T00:58:31;5.05;;;3.00;;
84033;SDS011;74115;55.806;37.754;2024-02-04T01:00:57;7.05;;;3.45;;
84033;SDS011;74115;55.806;37.754;2024-02-04T01:03:23;5.38;;;2.75;;
84033;SDS011;74115;55.806;37.754;2024-02-04T01:05:49;7.28;;;3.42;;
84033;SDS011;74115;55.806;37.754;2024-02-04T01:08:15;5.78;;;3.15;;
84033;SDS011;74115;55.806;37.754;2024-02-04T01:10:41;7.47;;;2.95;;
84033;SDS011;74115;55.806;37.754;2024-02-04T01:13:07;5.18;;;2.92;;
84033;SDS011;74115;55.806;37.754;2024-02-04T01:15:32;6.07;;;3.10;;
84033;SDS011;74115;55.806;37.754;2024-02-04T01:17:58;7.20;;;3.25;;
84033;SDS011;74115;55.806;37.754;2024-02-04T01:20:24;6.80;;;3.83;;
84033;SDS011;74115;55.806;37.754;2024-02-04T01:22:50;6.00;;;3.33;;
84033;SDS011;74115;55.806;37.754;2024-02-04T01:25:15;7.72;;;3.17;;
84033;SDS011;74115;55.806;37.754;2024-02-04T01:27:41;9.90;;;3.45;;
84033;SDS011;74115;55.806;37.754;2024-02-04T01:30:07;5.07;;;3.03;;
84033;SDS011;74115;55.806;37.754;2024-02-04T01:32:33;8.27;;;3.72;;
84033;SDS011;74115;55.806;37.754;2024-02-04T01:34:58;6.97;;;3.38;;
84033;SDS011;74115;55.806;37.754;2024-02-04T01:37:24;5.50;;;3.00;;
84033;SDS011;74115;55.806;37.754;2024-02-04T01:39:50;6.82;;;3.35;;
84033;SDS011;74115;55.806;37.754;2024-02-04T01:42:15;7.32;;;3.60;;
84033;SDS011;74115;55.806;37.754;2024-02-04T01:44:41;8.02;;;3.08;;
84033;SDS011;74115;55.806;37.754;2024-02-04T01:47:08;7.00;;;2.88;;
84033;SDS011;74115;55.806;37.754;2024-02-04T01:49:34;4.13;;;2.65;;
84033;SDS011;74115;55.806;37.754;2024-02-04T01:52:01;4.32;;;2.40;;
84033;SDS011;74115;55.806;37.754;2024-02-04T01:54:27;4.85;;;2.58;;
84033;SDS011;74115;55.806;37.754;2024-02-04T01:56:55;9.32;;;3.25;;
84033;SDS011;74115;55.806;37.754;2024-02-04T01:59:20;5.22;;;2.58;;
84033;SDS011;74115;55.806;37.754;2024-02-04T02:01:48;5.40;;;2.72;;
84033;SDS011;74115;55.806;37.754;2024-02-04T02:04:13;3.90;;;2.38;;
84033;SDS011;74115;55.806;37.754;2024-02-04T02:06:39;4.65;;;2.53;;
84033;SDS011;74115;55.806;37.754;2024-02-04T02:09:07;7.68;;;2.45;;
84033;SDS011;74115;55.806;37.754;2024-02-04T02:11:37;5.55;;;2.17;;
84033;SDS011;74115;55.806;37.754;2024-02-04T02:14:09;5.38;;;2.40;;
84033;SDS011;74115;55.806;37.754;2024-02-04T02:16:39;4.75;;;2.40;;
84033;SDS011;74115;55.806;37.754;2024-02-04T02:24:55;4.60;;;2.60;;
84033;SDS011;74115;55.806;37.754;2024-02-04T02:27:22;4.53;;;2.38;;
84033;SDS011;74115;55.806;37.754;2024-02-04T02:29:48;5.47;;;2.45;;
84033;SDS011;74115;55.806;37.754;2024-02-04T02:32:14;4.70;;;2.20;;
84033;SDS011;74115;55.806;37.754;2024-02-04T02:34:39;4.70;;;1.98;;
84033;SDS011;74115;55.806;37.754;2024-02-04T02:39:40;3.42;;;1.83;;
84033;SDS011;74115;55.806;37.754;2024-02-04T02:42:10;4.22;;;2.17;;
84033;SDS011;74115;55.806;37.754;2024-02-04T02:44:38;4.97;;;2.40;;
84033;SDS011;74115;55.806;37.754;2024-02-04T02:47:04;4.78;;;2.05;;
84033;SDS011;74115;55.806;37.754;2024-02-04T02:49:30;5.60;;;2.42;;
84033;SDS011;74115;55.806;37.754;2024-02-04T02:51:56;4.00;;;1.80;;
84033;SDS011;74115;55.806;37.754;2024-02-04T02:54:22;4.75;;;2.35;;
84033;SDS011;74115;55.806;37.754;2024-02-04T02:56:48;4.05;;;2.00;;
84033;SDS011;74115;55.806;37.754;2024-02-04T02:59:14;4.15;;;2.03;;
84033;SDS011;74115;55.806;37.754;2024-02-04T03:01:39;4.47;;;2.45;;
84033;SDS011;74115;55.806;37.754;2024-02-04T03:04:06;3.75;;;1.83;;
84033;SDS011;74115;55.806;37.754;2024-02-04T03:06:32;3.28;;;1.95;;
84033;SDS011;74115;55.806;37.754;2024-02-04T03:08:57;2.58;;;1.92;;
84033;SDS011;74115;55.806;37.754;2024-02-04T03:11:23;3.63;;;1.73;;
84033;SDS011;74115;55.806;37.754;2024-02-04T03:13:49;5.25;;;2.00;;
84033;SDS011;74115;55.806;37.754;2024-02-04T03:16:14;4.38;;;2.10;;
84033;SDS011;74115;55.806;37.754;2024-02-04T03:18:41;4.28;;;1.92;;
84033;SDS011;74115;55.806;37.754;2024-02-04T03:21:16;3.08;;;1.52;;
84033;SDS011;74115;55.806;37.754;2024-02-04T03:23:43;3.70;;;1.90;;
84033;SDS011;74115;55.806;37.754;2024-02-04T03:26:09;2.50;;;1.55;;
84033;SDS011;74115;55.806;37.754;2024-02-04T03:28:36;3.13;;;1.85;;
84033;SDS011;74115;55.806;37.754;2024-02-04T03:31:02;3.15;;;1.65;;
84033;SDS011;74115;55.806;37.754;2024-02-04T03:33:28;2.72;;;1.30;;
84033;SDS011;74115;55.806;37.754;2024-02-04T03:35:54;4.75;;;1.40;;
84033;SDS011;74115;55.806;37.754;2024-02-04T03:38:19;3.58;;;1.63;;
84033;SDS011;74115;55.806;37.754;2024-02-04T03:40:45;2.58;;;1.52;;
84033;SDS011;74115;55.806;37.754;2024-02-04T03:43:14;2.67;;;1.45;;
84033;SDS011;74115;55.806;37.754;2024-02-04T03:45:40;3.17;;;1.70;;
84033;SDS011;74115;55.806;37.754;2024-02-04T03:48:05;2.63;;;1.80;;
84033;SDS011;74115;55.806;37.754;2024-02-04T03:50:31;3.47;;;1.08;;
84033;SDS011;74115;55.806;37.754;2024-02-04T03:52:57;1.55;;;0.95;;
84033;SDS011;74115;55.806;37.754;2024-02-04T03:55:23;3.60;;;1.17;;
84033;SDS011;74115;55.806;37.754;2024-02-04T03:57:55;3.70;;;1.45;;
84033;SDS011;74115;55.806;37.754;2024-02-04T04:00:24;2.42;;;1.13;;
84033;SDS011;74115;55.806;37.754;2024-02-04T04:02:49;2.15;;;0.85;;
84033;SDS011;74115;55.806;37.754;2024-02-04T04:05:15;1.65;;;1.23;;
84033;SDS011;74115;55.806;37.754;2024-02-04T04:07:41;1.40;;;0.70;;
84033;SDS011;74115;55.806;37.754;2024-02-04T04:10:07;3.70;;;1.13;;
84033;SDS011;74115;55.806;37.754;2024-02-04T04:12:33;1.52;;;1.02;;
84033;SDS011;74115;55.806;37.754;2024-02-04T04:14:58;1.13;;;0.50;;
84033;SDS011;74115;55.806;37.754;2024-02-04T04:17:24;0.80;;;0.80;;
84033;SDS011;74115;55.806;37.754;2024-02-04T04:19:50;2.83;;;1.13;;
84033;SDS011;74115;55.806;37.754;2024-02-04T04:22:19;1.98;;;0.80;;
84033;SDS011;74115;55.806;37.754;2024-02-04T04:24:44;1.80;;;0.85;;
84033;SDS011;74115;55.806;37.754;2024-02-04T04:27:12;2.10;;;0.90;;
84033;SDS011;74115;55.806;37.754;2024-02-04T04:29:38;0.98;;;0.63;;
84033;SDS011;74115;55.806;37.754;2024-02-04T04:32:04;1.00;;;0.45;;
84033;SDS011;74115;55.806;37.754;2024-02-04T04:34:30;2.63;;;0.80;;
84033;SDS011;74115;55.806;37.754;2024-02-04T04:36:58;3.28;;;1.00;;
84033;SDS011;74115;55.806;37.754;2024-02-04T04:39:24;1.65;;;0.70;;
84033;SDS011;74115;55.806;37.754;2024-02-04T04:42:01;1.17;;;0.80;;
84033;SDS011;74115;55.806;37.754;2024-02-04T04:44:29;0.93;;;0.70;;
84033;SDS011;74115;55.806;37.754;2024-02-04T04:46:55;1.45;;;0.82;;
84033;SDS011;74115;55.806;37.754;2024-02-04T04:49:21;2.92;;;1.17;;
84033;SDS011;74115;55.806;37.754;2024-02-04T04:51:47;0.95;;;0.50;;
84033;SDS011;74115;55.806;37.754;2024-02-04T04:54:12;1.30;;;0.60;;
84033;SDS011;74115;55.806;37.754;2024-02-04T04:56:38;1.45;;;1.05;;
84033;SDS011;74115;55.806;37.754;2024-02-04T04:59:06;1.02;;;0.55;;
84033;SDS011;74115;55.806;37.754;2024-02-04T05:01:32;1.52;;;0.70;;
84033;SDS011;74115;55.806;37.754;2024-02-04T05:03:57;1.88;;;0.80;;
84033;SDS011;74115;55.806;37.754;2024-02-04T05:06:23;1.15;;;0.85;;
84033;SDS011;74115;55.806;37.754;2024-02-04T05:08:49;1.23;;;0.80;;
84033;SDS011;74115;55.806;37.754;2024-02-04T05:11:14;1.02;;;0.75;;
84033;SDS011;74115;55.806;37.754;2024-02-04T05:13:43;1.45;;;0.80;;
84033;SDS011;74115;55.806;37.754;2024-02-04T05:16:09;0.98;;;0.70;;
84033;SDS011;74115;55.806;37.754;2024-02-04T05:18:35;1.40;;;0.70;;
84033;SDS011;74115;55.806;37.754;2024-02-04T05:21:01;2.47;;;0.85;;
84033;SDS011;74115;55.806;37.754;2024-02-04T05:23:31;2.25;;;0.80;;
84033;SDS011;74115;55.806;37.754;2024-02-04T05:25:57;1.08;;;0.77;;
84033;SDS011;74115;55.806;37.754;2024-02-04T05:28:22;6.80;;;1.10;;
84033;SDS011;74115;55.806;37.754;2024-02-04T05:30:48;1.20;;;0.50;;
84033;SDS011;74115;55.806;37.754;2024-02-04T05:33:14;0.90;;;0.70;;
84033;SDS011;74115;55.806;37.754;2024-02-04T05:35:41;2.55;;;0.63;;
84033;SDS011;74115;55.806;37.754;2024-02-04T05:38:09;1.80;;;1.00;;
84033;SDS011;74115;55.806;37.754;2024-02-04T05:40:35;2.40;;;0.75;;
84033;SDS011;74115;55.806;37.754;2024-02-04T05:43:01;0.80;;;0.65;;
84033;SDS011;74115;55.806;37.754;2024-02-04T05:45:32;0.70;;;0.40;;
84033;SDS011;74115;55.806;37.754;2024-02-04T05:47:58;3.42;;;0.75;;
84033;SDS011;74115;55.806;37.754;2024-02-04T05:50:23;2.45;;;0.85;;
84033;SDS011;74115;55.806;37.754;2024-02-04T05:52:49;1.50;;;1.13;;
84033;SDS011;74115;55.806;37.754;2024-02-04T05:55:15;2.15;;;0.93;;
84033;SDS011;74115;55.806;37.754;2024-02-04T05:57:41;2.17;;;0.73;;
84033;SDS011;74115;55.806;37.754;2024-02-04T06:00:07;3.47;;;1.08;;
84033;SDS011;74115;55.806;37.754;2024-02-04T06:02:38;3.05;;;0.90;;
84033;SDS011;74115;55.806;37.754;2024-02-04T06:05:05;2.60;;;1.00;;
84033;SDS011;74115;55.806;37.754;2024-02-04T06:07:30;2.30;;;0.90;;
84033;SDS011;74115;55.806;37.754;2024-02-04T06:09:56;1.45;;;0.70;;
84033;SDS011;74115;55.806;37.754;2024-02-04T06:14:50;1.23;;;0.80;;
84033;SDS011;74115;55.806;37.754;2024-02-04T06:17:16;1.38;;;1.17;;
84033;SDS011;74115;55.806;37.754;2024-02-04T06:19:41;0.85;;;0.68;;
84033;SDS011;74115;55.806;37.754;2024-02-04T06:22:07;1.83;;;1.00;;
84033;SDS011;74115;55.806;37.754;2024-02-04T06:24:33;1.35;;;0.70;;
84033;SDS011;74115;55.806;37.754;2024-02-04T06:26:58;1.35;;;0.98;;
84033;SDS011;74115;55.806;37.754;2024-02-04T06:29:24;0.98;;;0.80;;
84033;SDS011;74115;55.806;37.754;2024-02-04T06:31:50;2.33;;;0.82;;
84033;SDS011;74115;55.806;37.754;2024-02-04T06:34:16;0.80;;;0.63;;
84033;SDS011;74115;55.806;37.754;2024-02-04T06:36:42;1.75;;;0.57;;
84033;SDS011;74115;55.806;37.754;2024-02-04T06:39:08;1.75;;;1.00;;
84033;SDS011;74115;55.806;37.754;2024-02-04T06:41:35;1.00;;;0.75;;
84033;SDS011;74115;55.806;37.754;2024-02-04T06:44:02;0.77;;;0.40;;
84033;SDS011;74115;55.806;37.754;2024-02-04T06:46:28;2.35;;;1.10;;
84033;SDS011;74115;55.806;37.754;2024-02-04T06:48:54;1.15;;;0.70;;
84033;SDS011;74115;55.806;37.754;2024-02-04T06:51:20;2.63;;;0.55;;
84033;SDS011;74115;55.806;37.754;2024-02-04T06:53:46;0.82;;;0.30;;
84033;SDS011;74115;55.806;37.754;2024-02-04T06:56:12;0.30;;;0.30;;
84033;SDS011;74115;55.806;37.754;2024-02-04T06:58:38;2.40;;;0.65;;
84033;SDS011;74115;55.806;37.754;2024-02-04T07:01:05;7.10;;;1.08;;
84033;SDS011;74115;55.806;37.754;2024-02-04T07:03:31;0.60;;;0.50;;
84033;SDS011;74115;55.806;37.754;2024-02-04T07:06:00;0.95;;;0.82;;
84033;SDS011;74115;55.806;37.754;2024-02-04T07:08:26;3.53;;;0.85;;
84033;SDS011;74115;55.806;37.754;2024-02-04T07:10:52;0.50;;;0.35;;
84033;SDS011;74115;55.806;37.754;2024-02-04T07:13:18;0.55;;;0.28;;
84033;SDS011;74115;55.806;37.754;2024-02-04T07:15:44;0.60;;;0.22;;
84033;SDS011;74115;55.806;37.754;2024-02-04T07:18:10;1.25;;;0.40;;
84033;SDS011;74115;55.806;37.754;2024-02-04T07:20:36;0.40;;;0.20;;
84033;SDS011;74115;55.806;37.754;2024-02-04T07:23:03;2.60;;;0.63;;
84033;SDS011;74115;55.806;37.754;2024-02-04T07:25:29;1.75;;;0.40;;
84033;SDS011;74115;55.806;37.754;2024-02-04T07:27:55;1.10;;;0.65;;
84033;SDS011;74115;55.806;37.754;2024-02-04T07:30:24;1.08;;;0.55;;
84033;SDS011;74115;55.806;37.754;2024-02-04T07:32:50;0.98;;;0.70;;
84033;SDS011;74115;55.806;37.754;2024-02-04T07:35:16;2.47;;;0.50;;
84033;SDS011;74115;55.806;37.754;2024-02-04T07:37:42;0.93;;;0.50;;
84033;SDS011;74115;55.806;37.754;2024-02-04T07:40:08;0.70;;;0.40;;
84033;SDS011;74115;55.806;37.754;2024-02-04T07:42:34;3.90;;;0.75;;
84033;SDS011;74115;55.806;37.754;2024-02-04T07:45:00;1.17;;;0.32;;
84033;SDS011;74115;55.806;37.754;2024-02-04T07:47:30;0.45;;;0.45;;
84033;SDS011;74115;55.806;37.754;2024-02-04T07:49:56;1.52;;;0.82;;
84033;SDS011;74115;55.806;37.754;2024-02-04T07:52:21;0.52;;;0.47;;
84033;SDS011;74115;55.806;37.754;2024-02-04T07:54:49;0.80;;;0.60;;
84033;SDS011;74115;55.806;37.754;2024-02-04T07:57:15;1.08;;;0.52;;
84033;SDS011;74115;55.806;37.754;2024-02-04T07:59:41;0.77;;;0.60;;
84033;SDS011;74115;55.806;37.754;2024-02-04T08:02:06;0.65;;;0.50;;
84033;SDS011;74115;55.806;37.754;2024-02-04T08:04:32;0.70;;;0.35;;
84033;SDS011;74115;55.806;37.754;2024-02-04T08:06:58;1.88;;;0.60;;
84033;SDS011;74115;55.806;37.754;2024-02-04T08:09:23;0.55;;;0.32;;
84033;SDS011;74115;55.806;37.754;2024-02-04T08:11:49;0.70;;;0.43;;
84033;SDS011;74115;55.806;37.754;2024-02-04T08:14:15;0.68;;;0.55;;
84033;SDS011;74115;55.806;37.754;2024-02-04T08:16:43;0.95;;;0.55;;
84033;SDS011;74115;55.806;37.754;2024-02-04T08:19:08;1.38;;;0.47;;
84033;SDS011;74115;55.806;37.754;2024-02-04T08:21:34;1.08;;;0.40;;
84033;SDS011;74115;55.806;37.754;2024-02-04T08:24:00;0.75;;;0.50;;
84033;SDS011;74115;55.806;37.754;2024-02-04T08:26:26;0.68;;;0.52;;
84033;SDS011;74115;55.806;37.754;2024-02-04T08:28:51;0.40;;;0.40;;
84033;SDS011;74115;55.806;37.754;2024-02-04T08:31:17;1.02;;;0.60;;
84033;SDS011;74115;55.806;37.754;2024-02-04T08:33:43;1.15;;;0.40;;
84033;SDS011;74115;55.806;37.754;2024-02-04T08:36:08;2.40;;;0.77;;
84033;SDS011;74115;55.806;37.754;2024-02-04T08:38:36;0.60;;;0.50;;
84033;SDS011;74115;55.806;37.754;2024-02-04T08:41:06;0.85;;;0.70;;
84033;SDS011;74115;55.806;37.754;2024-02-04T08:43:32;0.93;;;0.43;;
84033;SDS011;74115;55.806;37.754;2024-02-04T08:45:57;0.68;;;0.45;;
84033;SDS011;74115;55.806;37.754;2024-02-04T08:48:23;2.00;;;0.55;;
84033;SDS011;74115;55.806;37.754;2024-02-04T08:50:49;0.98;;;0.50;;
84033;SDS011;74115;55.806;37.754;2024-02-04T08:53:15;0.95;;;0.70;;
84033;SDS011;74115;55.806;37.754;2024-02-04T08:55:40;0.75;;;0.50;;
84033;SDS011;74115;55.806;37.754;2024-02-04T08:58:06;0.25;;;0.22;;
84033;SDS011;74115;55.806;37.754;2024-02-04T09:00:32;0.73;;;0.65;;
84033;SDS011;74115;55.806;37.754;2024-02-04T09:02:57;2.35;;;0.63;;
84033;SDS011;74115;55.806;37.754;2024-02-04T09:05:23;4.07;;;0.70;;
84033;SDS011;74115;55.806;37.754;2024-02-04T09:07:49;1.27;;;1.10;;
84033;SDS011;74115;55.806;37.754;2024-02-04T09:10:16;0.90;;;0.63;;
84033;SDS011;74115;55.806;37.754;2024-02-04T09:12:44;1.25;;;0.55;;
84033;SDS011;74115;55.806;37.754;2024-02-04T09:15:10;2.95;;;0.55;;
84033;SDS011;74115;55.806;37.754;2024-02-04T09:17:35;1.63;;;0.65;;
84033;SDS011;74115;55.806;37.754;2024-02-04T09:20:01;0.90;;;0.30;;
84033;SDS011;74115;55.806;37.754;2024-02-04T09:22:29;2.70;;;0.80;;
84033;SDS011;74115;55.806;37.754;2024-02-04T09:24:55;1.73;;;0.85;;
84033;SDS011;74115;55.806;37.754;2024-02-04T09:27:20;4.65;;;0.80;;
84033;SDS011;74115;55.806;37.754;2024-02-04T09:29:46;2.65;;;1.17;;
84033;SDS011;74115;55.806;37.754;2024-02-04T09:32:12;2.25;;;0.80;;
84033;SDS011;74115;55.806;37.754;2024-02-04T09:34:38;1.60;;;0.75;;
84033;SDS011;74115;55.806;37.754;2024-02-04T09:37:04;10.77;;;1.20;;
84033;SDS011;74115;55.806;37.754;2024-02-04T09:39:30;3.85;;;1.30;;
84033;SDS011;74115;55.806;37.754;2024-02-04T09:41:55;7.13;;;1.20;;
84033;SDS011;74115;55.806;37.754;2024-02-04T09:44:22;3.20;;;0.60;;
84033;SDS011;74115;55.806;37.754;2024-02-04T09:46:48;3.85;;;0.93;;
84033;SDS011;74115;55.806;37.754;2024-02-04T09:49:14;1.65;;;0.85;;
84033;SDS011;74115;55.806;37.754;2024-02-04T09:51:40;2.08;;;0.98;;
84033;SDS011;74115;55.806;37.754;2024-02-04T09:54:07;3.30;;;0.57;;
84033;SDS011;74115;55.806;37.754;2024-02-04T09:56:35;2.00;;;0.90;;
84033;SDS011;74115;55.806;37.754;2024-02-04T09:59:03;3.63;;;1.02;;
84033;SDS011;74115;55.806;37.754;2024-02-04T10:01:30;3.90;;;1.33;;
84033;SDS011;74115;55.806;37.754;2024-02-04T10:03:57;3.70;;;0.95;;
84033;SDS011;74115;55.806;37.754;2024-02-04T10:06:23;0.73;;;0.50;;
84033;SDS011;74115;55.806;37.754;2024-02-04T10:08:49;5.32;;;1.38;;
84033;SDS011;74115;55.806;37.754;2024-02-04T10:11:15;1.25;;;0.95;;
84033;SDS011;74115;55.806;37.754;2024-02-04T10:13:47;1.27;;;0.60;;
84033;SDS011;74115;55.806;37.754;2024-02-04T10:16:14;2.53;;;0.90;;
84033;SDS011;74115;55.806;37.754;2024-02-04T10:18:42;1.88;;;0.52;;
84033;SDS011;74115;55.806;37.754;2024-02-04T10:21:20;3.85;;;0.98;;
84033;SDS011;74115;55.806;37.754;2024-02-04T10:23:49;2.22;;;1.10;;
84033;SDS011;74115;55.806;37.754;2024-02-04T10:26:15;4.63;;;1.23;;
84033;SDS011;74115;55.806;37.754;2024-02-04T10:28:42;3.85;;;0.90;;
84033;SDS011;74115;55.806;37.754;2024-02-04T10:31:09;4.82;;;1.25;;
84033;SDS011;74115;55.806;37.754;2024-02-04T10:33:36;1.00;;;0.52;;
84033;SDS011;74115;55.806;37.754;2024-02-04T10:36:04;2.17;;;0.90;;
84033;SDS011;74115;55.806;37.754;2024-02-04T10:38:31;2.75;;;1.02;;
84033;SDS011;74115;55.806;37.754;2024-02-04T10:40:59;3.33;;;1.20;;
84033;SDS011;74115;55.806;37.754;2024-02-04T10:43:32;10.00;;;1.35;;
84033;SDS011;74115;55.806;37.754;2024-02-04T10:46:08;0.85;;;0.47;;
84033;SDS011;74115;55.806;37.754;2024-02-04T10:48:43;6.88;;;0.98;;
84033;SDS011;74115;55.806;37.754;2024-02-04T10:51:13;2.97;;;0.75;;
84033;SDS011;74115;55.806;37.754;2024-02-04T10:53:41;3.10;;;1.30;;
84033;SDS011;74115;55.806;37.754;2024-02-04T10:56:12;7.68;;;1.17;;
84033;SDS011;74115;55.806;37.754;2024-02-04T10:58:40;1.52;;;0.60;;
84033;SDS011;74115;55.806;37.754;2024-02-04T11:01:06;3.95;;;0.93;;
84033;SDS011;74115;55.806;37.754;2024-02-04T11:03:32;2.13;;;0.88;;
84033;SDS011;74115;55.806;37.754;2024-02-04T11:05:58;5.80;;;1.02;;
84033;SDS011;74115;55.806;37.754;2024-02-04T11:08:24;1.30;;;0.80;;
84033;SDS011;74115;55.806;37.754;2024-02-04T11:10:50;4.85;;;1.05;;
84033;SDS011;74115;55.806;37.754;2024-02-04T11:13:18;3.90;;;1.02;;
84033;SDS011;74115;55.806;37.754;2024-02-04T11:15:48;4.25;;;0.95;;
84033;SDS011;74115;55.806;37.754;2024-02-04T11:18:35;1.77;;;0.93;;
84033;SDS011;74115;55.806;37.754;2024-02-04T11:26:42;2.13;;;0.90;;
84033;SDS011;74115;55.806;37.754;2024-02-04T11:29:09;5.57;;;1.25;;
84033;SDS011;74115;55.806;37.754;2024-02-04T11:31:38;3.50;;;0.65;;
84033;SDS011;74115;55.806;37.754;2024-02-04T11:34:24;3.80;;;0.98;;
84033;SDS011;74115;55.806;37.754;2024-02-04T11:36:49;4.00;;;1.67;;
84033;SDS011;74115;55.806;37.754;2024-02-04T11:39:17;5.22;;;1.00;;
84033;SDS011;74115;55.806;37.754;2024-02-04T11:57:51;2.47;;;1.10;;
84033;SDS011;74115;55.806;37.754;2024-02-04T12:00:17;1.50;;;1.20;;
84033;SDS011;74115;55.806;37.754;2024-02-04T12:02:43;3.83;;;1.13;;
84033;SDS011;74115;55.806;37.754;2024-02-04T12:05:09;1.27;;;0.65;;
84033;SDS011;74115;55.806;37.754;2024-02-04T12:07:35;2.58;;;0.75;;
84033;SDS011;74115;55.806;37.754;2024-02-04T12:10:01;3.17;;;0.70;;
84033;SDS011;74115;55.806;37.754;2024-02-04T12:12:28;2.70;;;0.70;;
84033;SDS011;74115;55.806;37.754;2024-02-04T12:14:55;3.92;;;1.15;;
84033;SDS011;74115;55.806;37.754;2024-02-04T12:17:22;0.80;;;0.60;;
84033;SDS011;74115;55.806;37.754;2024-02-04T12:19:47;4.45;;;0.98;;
84033;SDS011;74115;55.806;37.754;2024-02-04T12:22:15;2.35;;;0.60;;
84033;SDS011;74115;55.806;37.754;2024-02-04T12:24:42;4.22;;;1.08;;
84033;SDS011;74115;55.806;37.754;2024-02-04T12:27:08;2.33;;;0.52;;
84033;SDS011;74115;55.806;37.754;2024-02-04T12:29:33;2.28;;;0.73;;
84033;SDS011;74115;55.806;37.754;2024-02-04T12:32:00;0.57;;;0.45;;
84033;SDS011;74115;55.806;37.754;2024-02-04T12:34:26;5.88;;;1.13;;
84033;SDS011;74115;55.806;37.754;2024-02-04T12:36:59;4.18;;;0.63;;
84033;SDS011;74115;55.806;37.754;2024-02-04T12:39:28;1.80;;;0.40;;
84033;SDS011;74115;55.806;37.754;2024-02-04T12:41:54;0.60;;;0.47;;
84033;SDS011;74115;55.806;37.754;2024-02-04T12:44:20;0.38;;;0.30;;
84033;SDS011;74115;55.806;37.754;2024-02-04T12:46:50;1.90;;;0.45;;
84033;SDS011;74115;55.806;37.754;2024-02-04T12:49:20;1.80;;;0.45;;
84033;SDS011;74115;55.806;37.754;2024-02-04T12:51:49;0.63;;;0.50;;
84033;SDS011;74115;55.806;37.754;2024-02-04T12:54:18;1.80;;;0.32;;
84033;SDS011;74115;55.806;37.754;2024-02-04T12:56:45;0.73;;;0.43;;
84033;SDS011;74115;55.806;37.754;2024-02-04T13:01:57;1.73;;;0.50;;
84033;SDS011;74115;55.806;37.754;2024-02-04T13:04:24;4.07;;;0.95;;
84033;SDS011;74115;55.806;37.754;2024-02-04T13:06:50;3.35;;;0.95;;
84033;SDS011;74115;55.806;37.754;2024-02-04T13:09:17;0.63;;;0.35;;
84033;SDS011;74115;55.806;37.754;2024-02-04T13:11:43;0.80;;;0.22;;
84033;SDS011;74115;55.806;37.754;2024-02-04T13:14:09;2.05;;;0.40;;
84033;SDS011;74115;55.806;37.754;2024-02-04T13:16:35;2.30;;;0.52;;
84033;SDS011;74115;55.806;37.754;2024-02-04T13:19:03;2.75;;;0.50;;
84033;SDS011;74115;55.806;37.754;2024-02-04T13:21:29;0.63;;;0.40;;
84033;SDS011;74115;55.806;37.754;2024-02-04T13:23:56;3.28;;;0.75;;
84033;SDS011;74115;55.806;37.754;2024-02-04T13:26:22;1.25;;;0.45;;
84033;SDS011;74115;55.806;37.754;2024-02-04T13:28:48;3.10;;;0.60;;
84033;SDS011;74115;55.806;37.754;2024-02-04T13:31:14;1.48;;;0.60;;
84033;SDS011;74115;55.806;37.754;2024-02-04T13:33:39;1.25;;;0.60;;
84033;SDS011;74115;55.806;37.754;2024-02-04T13:36:06;0.75;;;0.30;;
84033;SDS011;74115;55.806;37.754;2024-02-04T13:38:33;1.33;;;0.45;;
84033;SDS011;74115;55.806;37.754;2024-02-04T13:40:59;2.65;;;0.38;;
84033;SDS011;74115;55.806;37.754;2024-02-04T13:43:25;1.77;;;0.70;;
84033;SDS011;74115;55.806;37.754;2024-02-04T13:45:51;3.83;;;0.60;;
84033;SDS011;74115;55.806;37.754;2024-02-04T13:48:17;4.25;;;0.43;;
84033;SDS011;74115;55.806;37.754;2024-02-04T13:50:44;2.10;;;0.43;;
84033;SDS011;74115;55.806;37.754;2024-02-04T13:53:11;0.40;;;0.40;;
84033;SDS011;74115;55.806;37.754;2024-02-04T13:55:37;2.05;;;0.57;;
84033;SDS011;74115;55.806;37.754;2024-02-04T13:58:03;1.90;;;0.50;;
84033;SDS011;74115;55.806;37.754;2024-02-04T14:00:29;1.17;;;0.30;;
84033;SDS011;74115;55.806;37.754;2024-02-04T14:02:54;1.48;;;0.50;;
84033;SDS011;74115;55.806;37.754;2024-02-04T14:05:20;3.70;;;0.40;;
84033;SDS011;74115;55.806;37.754;2024-02-04T14:07:49;1.20;;;0.57;;
84033;SDS011;74115;55.806;37.754;2024-02-04T14:10:15;0.85;;;0.47;;
84033;SDS011;74115;55.806;37.754;2024-02-04T14:12:41;1.85;;;0.40;;
84033;SDS011;74115;55.806;37.754;2024-02-04T14:15:11;7.22;;;0.73;;
84033;SDS011;74115;55.806;37.754;2024-02-04T14:17:37;0.77;;;0.57;;
84033;SDS011;74115;55.806;37.754;2024-02-04T14:20:04;1.42;;;0.40;;
84033;SDS011;74115;55.806;37.754;2024-02-04T14:22:31;1.25;;;0.50;;
84033;SDS011;74115;55.806;37.754;2024-02-04T14:24:57;2.10;;;0.80;;
84033;SDS011;74115;55.806;37.754;2024-02-04T14:27:25;1.85;;;0.60;;
84033;SDS011;74115;55.806;37.754;2024-02-04T14:29:51;1.90;;;0.85;;
84033;SDS011;74115;55.806;37.754;2024-02-04T14:32:16;1.60;;;0.50;;
84033;SDS011;74115;55.806;37.754;2024-02-04T14:34:44;1.38;;;0.57;;
84033;SDS011;74115;55.806;37.754;2024-02-04T14:37:09;1.88;;;0.35;;
84033;SDS011;74115;55.806;37.754;2024-02-04T14:39:36;3.30;;;0.65;;
84033;SDS011;74115;55.806;37.754;2024-02-04T14:42:04;1.92;;;0.55;;
84033;SDS011;74115;55.806;37.754;2024-02-04T14:44:30;1.27;;;0.68;;
84033;SDS011;74115;55.806;37.754;2024-02-04T14:46:56;1.15;;;0.60;;
84033;SDS011;74115;55.806;37.754;2024-02-04T14:49:22;2.92;;;0.88;;
84033;SDS011;74115;55.806;37.754;2024-02-04T14:51:48;2.67;;;1.05;;
84033;SDS011;74115;55.806;37.754;2024-02-04T14:54:14;2.35;;;0.68;;
84033;SDS011;74115;55.806;37.754;2024-02-04T14:56:40;2.30;;;0.30;;
84033;SDS011;74115;55.806;37.754;2024-02-04T14:59:08;2.05;;;0.40;;
84033;SDS011;74115;55.806;37.754;2024-02-04T15:01:37;1.67;;;0.40;;
84033;SDS011;74115;55.806;37.754;2024-02-04T15:04:03;2.80;;;0.80;;